sensor_id;sensor_type;location;lat;lon;timestamp;temperature;humidity
64997;SHT31;51545;51.568;6.998;2023-02-11T00:02:24;6.64;89.99
64997;SHT31;51545;51.568;6.998;2023-02-11T00:04:53;6.65;89.94
64997;SHT31;51545;51.568;6.998;2023-02-11T00:07:19;6.64;89.92
64997;SHT31;51545;51.568;6.998;2023-02-11T00:09:44;6.69;89.77
64997;SHT31;51545;51.568;6.998;2023-02-11T00:12:09;6.69;89.73
64997;SHT31;51545;51.568;6.998;2023-02-11T00:14:35;6.71;89.59
64997;SHT31;51545;51.568;6.998;2023-02-11T00:17:00;6.68;89.68
64997;SHT31;51545;51.568;6.998;2023-02-11T00:19:26;6.67;89.78
64997;SHT31;51545;51.568;6.998;2023-02-11T00:21:51;6.67;89.97
64997;SHT31;51545;51.568;6.998;2023-02-11T00:24:16;6.68;89.96
64997;SHT31;51545;51.568;6.998;2023-02-11T00:26:42;6.65;89.96
64997;SHT31;51545;51.568;6.998;2023-02-11T00:29:09;6.69;89.72
64997;SHT31;51545;51.568;6.998;2023-02-11T00:31:34;6.71;89.59
64997;SHT31;51545;51.568;6.998;2023-02-11T00:34:00;6.75;89.37
64997;SHT31;51545;51.568;6.998;2023-02-11T00:36:26;6.75;89.43
64997;SHT31;51545;51.568;6.998;2023-02-11T00:38:53;6.75;89.37
64997;SHT31;51545;51.568;6.998;2023-02-11T00:41:20;6.79;89.18
64997;SHT31;51545;51.568;6.998;2023-02-11T00:43:46;6.83;89.08
64997;SHT31;51545;51.568;6.998;2023-02-11T00:46:12;6.85;88.88
64997;SHT31;51545;51.568;6.998;2023-02-11T00:48:39;6.88;88.92
64997;SHT31;51545;51.568;6.998;2023-02-11T00:51:04;6.83;88.97
64997;SHT31;51545;51.568;6.998;2023-02-11T00:53:31;6.85;88.95
64997;SHT31;51545;51.568;6.998;2023-02-11T00:55:56;6.82;89.03
64997;SHT31;51545;51.568;6.998;2023-02-11T00:58:22;6.82;88.90
64997;SHT31;51545;51.568;6.998;2023-02-11T01:00:48;6.86;88.73
64997;SHT31;51545;51.568;6.998;2023-02-11T01:03:13;6.85;88.70
64997;SHT31;51545;51.568;6.998;2023-02-11T01:05:39;6.86;88.69
64997;SHT31;51545;51.568;6.998;2023-02-11T01:08:04;6.89;88.60
64997;SHT31;51545;51.568;6.998;2023-02-11T01:10:31;6.88;88.49
64997;SHT31;51545;51.568;6.998;2023-02-11T01:12:56;6.89;88.25
64997;SHT31;51545;51.568;6.998;2023-02-11T01:15:22;6.89;88.25
64997;SHT31;51545;51.568;6.998;2023-02-11T01:17:48;6.85;88.41
64997;SHT31;51545;51.568;6.998;2023-02-11T01:20:15;6.83;88.45
64997;SHT31;51545;51.568;6.998;2023-02-11T01:22:42;6.83;88.49
64997;SHT31;51545;51.568;6.998;2023-02-11T01:25:08;6.85;88.57
64997;SHT31;51545;51.568;6.998;2023-02-11T01:27:34;6.85;88.34
64997;SHT31;51545;51.568;6.998;2023-02-11T01:29:59;6.80;88.49
64997;SHT31;51545;51.568;6.998;2023-02-11T01:32:25;6.86;88.34
64997;SHT31;51545;51.568;6.998;2023-02-11T01:34:51;6.80;88.49
64997;SHT31;51545;51.568;6.998;2023-02-11T01:37:16;6.79;88.48
64997;SHT31;51545;51.568;6.998;2023-02-11T01:39:41;6.79;88.39
64997;SHT31;51545;51.568;6.998;2023-02-11T01:42:09;6.80;88.47
64997;SHT31;51545;51.568;6.998;2023-02-11T01:44:39;6.78;88.57
64997;SHT31;51545;51.568;6.998;2023-02-11T01:47:05;6.76;88.69
64997;SHT31;51545;51.568;6.998;2023-02-11T01:49:31;6.79;88.42
64997;SHT31;51545;51.568;6.998;2023-02-11T01:52:06;6.76;88.71
64997;SHT31;51545;51.568;6.998;2023-02-11T01:54:41;6.76;88.73
64997;SHT31;51545;51.568;6.998;2023-02-11T01:57:29;6.78;88.51
64997;SHT31;51545;51.568;6.998;2023-02-11T02:00:05;6.76;88.69
64997;SHT31;51545;51.568;6.998;2023-02-11T02:05:43;6.75;88.80
64997;SHT31;51545;51.568;6.998;2023-02-11T02:08:27;6.71;88.90
64997;SHT31;51545;51.568;6.998;2023-02-11T02:10:58;6.75;88.92
64997;SHT31;51545;51.568;6.998;2023-02-11T02:13:25;6.72;88.88
64997;SHT31;51545;51.568;6.998;2023-02-11T02:15:54;6.64;89.20
64997;SHT31;51545;51.568;6.998;2023-02-11T02:26:52;6.62;89.56
64997;SHT31;51545;51.568;6.998;2023-02-11T02:37:46;6.51;89.66
64997;SHT31;51545;51.568;6.998;2023-02-11T02:40:34;6.52;89.70
64997;SHT31;51545;51.568;6.998;2023-02-11T02:43:05;6.49;89.77
64997;SHT31;51545;51.568;6.998;2023-02-11T02:45:33;6.54;89.72
64997;SHT31;51545;51.568;6.998;2023-02-11T02:47:58;6.48;89.88
64997;SHT31;51545;51.568;6.998;2023-02-11T02:50:25;6.51;90.03
64997;SHT31;51545;51.568;6.998;2023-02-11T02:55:35;6.44;90.08
64997;SHT31;51545;51.568;6.998;2023-02-11T02:58:34;6.42;90.08
64997;SHT31;51545;51.568;6.998;2023-02-11T03:04:07;6.40;90.37
64997;SHT31;51545;51.568;6.998;2023-02-11T03:06:52;6.40;90.40
64997;SHT31;51545;51.568;6.998;2023-02-11T03:12:00;6.40;90.44
64997;SHT31;51545;51.568;6.998;2023-02-11T03:14:28;6.40;90.46
64997;SHT31;51545;51.568;6.998;2023-02-11T03:16:56;6.38;90.43
64997;SHT31;51545;51.568;6.998;2023-02-11T03:19:25;6.37;90.51
64997;SHT31;51545;51.568;6.998;2023-02-11T03:21:55;6.40;90.57
64997;SHT31;51545;51.568;6.998;2023-02-11T03:24:28;6.35;90.59
64997;SHT31;51545;51.568;6.998;2023-02-11T03:26:58;6.37;90.64
64997;SHT31;51545;51.568;6.998;2023-02-11T03:29:30;6.33;90.79
64997;SHT31;51545;51.568;6.998;2023-02-11T03:32:29;6.34;90.97
64997;SHT31;51545;51.568;6.998;2023-02-11T03:35:00;6.28;91.51
64997;SHT31;51545;51.568;6.998;2023-02-11T03:40:09;6.24;91.94
64997;SHT31;51545;51.568;6.998;2023-02-11T03:42:45;6.20;92.27
64997;SHT31;51545;51.568;6.998;2023-02-11T03:45:15;6.18;92.16
64997;SHT31;51545;51.568;6.998;2023-02-11T03:47:58;6.21;92.04
64997;SHT31;51545;51.568;6.998;2023-02-11T03:50:28;6.18;92.28
64997;SHT31;51545;51.568;6.998;2023-02-11T03:52:57;6.10;92.87
64997;SHT31;51545;51.568;6.998;2023-02-11T03:55:25;6.03;93.59
64997;SHT31;51545;51.568;6.998;2023-02-11T03:57:53;6.06;93.88
64997;SHT31;51545;51.568;6.998;2023-02-11T04:00:19;6.02;94.39
64997;SHT31;51545;51.568;6.998;2023-02-11T04:02:44;5.93;95.06
64997;SHT31;51545;51.568;6.998;2023-02-11T04:05:11;5.92;95.38
64997;SHT31;51545;51.568;6.998;2023-02-11T04:07:39;5.90;95.55
64997;SHT31;51545;51.568;6.998;2023-02-11T04:10:05;5.86;95.70
64997;SHT31;51545;51.568;6.998;2023-02-11T04:12:30;5.81;95.84
64997;SHT31;51545;51.568;6.998;2023-02-11T04:14:56;5.82;95.93
64997;SHT31;51545;51.568;6.998;2023-02-11T04:17:22;5.83;96.02
64997;SHT31;51545;51.568;6.998;2023-02-11T04:19:47;5.83;96.01
64997;SHT31;51545;51.568;6.998;2023-02-11T04:22:13;5.82;96.04
64997;SHT31;51545;51.568;6.998;2023-02-11T04:24:38;5.79;96.01
64997;SHT31;51545;51.568;6.998;2023-02-11T04:27:03;5.82;96.05
64997;SHT31;51545;51.568;6.998;2023-02-11T04:29:29;5.82;95.94
64997;SHT31;51545;51.568;6.998;2023-02-11T04:31:54;5.82;95.87
64997;SHT31;51545;51.568;6.998;2023-02-11T04:34:20;5.82;95.87
64997;SHT31;51545;51.568;6.998;2023-02-11T04:36:46;5.85;95.70
64997;SHT31;51545;51.568;6.998;2023-02-11T04:39:11;5.86;95.54
64997;SHT31;51545;51.568;6.998;2023-02-11T04:41:37;5.89;95.51
64997;SHT31;51545;51.568;6.998;2023-02-11T04:44:03;5.92;95.42
64997;SHT31;51545;51.568;6.998;2023-02-11T04:46:29;5.92;95.35
64997;SHT31;51545;51.568;6.998;2023-02-11T04:48:55;5.95;95.38
64997;SHT31;51545;51.568;6.998;2023-02-11T04:51:20;5.89;95.37
64997;SHT31;51545;51.568;6.998;2023-02-11T04:53:46;5.90;95.41
64997;SHT31;51545;51.568;6.998;2023-02-11T04:56:11;5.90;95.26
64997;SHT31;51545;51.568;6.998;2023-02-11T04:58:37;5.89;95.37
64997;SHT31;51545;51.568;6.998;2023-02-11T05:01:08;5.92;95.39
64997;SHT31;51545;51.568;6.998;2023-02-11T05:03:35;5.89;95.23
64997;SHT31;51545;51.568;6.998;2023-02-11T05:06:01;5.90;95.29
64997;SHT31;51545;51.568;6.998;2023-02-11T05:08:27;5.93;95.28
64997;SHT31;51545;51.568;6.998;2023-02-11T05:10:53;5.95;95.17
64997;SHT31;51545;51.568;6.998;2023-02-11T05:13:18;5.96;95.17
64997;SHT31;51545;51.568;6.998;2023-02-11T05:15:44;5.93;95.20
64997;SHT31;51545;51.568;6.998;2023-02-11T05:18:10;5.92;95.24
64997;SHT31;51545;51.568;6.998;2023-02-11T05:20:38;5.92;95.30
64997;SHT31;51545;51.568;6.998;2023-02-11T05:23:04;5.93;95.29
64997;SHT31;51545;51.568;6.998;2023-02-11T05:25:29;5.95;95.26
64997;SHT31;51545;51.568;6.998;2023-02-11T05:27:54;5.89;95.35
64997;SHT31;51545;51.568;6.998;2023-02-11T05:30:20;5.92;95.35
64997;SHT31;51545;51.568;6.998;2023-02-11T05:32:46;5.93;95.32
64997;SHT31;51545;51.568;6.998;2023-02-11T05:35:11;5.89;95.40
64997;SHT31;51545;51.568;6.998;2023-02-11T05:37:37;5.92;95.41
64997;SHT31;51545;51.568;6.998;2023-02-11T05:40:03;5.88;95.48
64997;SHT31;51545;51.568;6.998;2023-02-11T05:42:29;5.92;95.49
64997;SHT31;51545;51.568;6.998;2023-02-11T05:44:54;5.93;95.45
64997;SHT31;51545;51.568;6.998;2023-02-11T05:47:19;5.92;95.60
64997;SHT31;51545;51.568;6.998;2023-02-11T05:49:45;5.90;95.72
64997;SHT31;51545;51.568;6.998;2023-02-11T05:52:11;5.89;95.73
64997;SHT31;51545;51.568;6.998;2023-02-11T05:54:36;5.88;95.80
64997;SHT31;51545;51.568;6.998;2023-02-11T05:57:02;5.89;95.76
64997;SHT31;51545;51.568;6.998;2023-02-11T05:59:27;5.89;95.88
64997;SHT31;51545;51.568;6.998;2023-02-11T06:01:53;5.89;95.90
64997;SHT31;51545;51.568;6.998;2023-02-11T06:04:18;5.89;95.98
64997;SHT31;51545;51.568;6.998;2023-02-11T06:06:44;5.88;96.02
64997;SHT31;51545;51.568;6.998;2023-02-11T06:09:09;5.88;96.06
64997;SHT31;51545;51.568;6.998;2023-02-11T06:11:36;5.89;96.11
64997;SHT31;51545;51.568;6.998;2023-02-11T06:14:02;5.88;96.18
64997;SHT31;51545;51.568;6.998;2023-02-11T06:16:27;5.89;96.17
64997;SHT31;51545;51.568;6.998;2023-02-11T06:18:53;5.86;96.24
64997;SHT31;51545;51.568;6.998;2023-02-11T06:21:18;5.88;96.30
64997;SHT31;51545;51.568;6.998;2023-02-11T06:23:43;5.86;96.37
64997;SHT31;51545;51.568;6.998;2023-02-11T06:26:14;5.83;96.52
64997;SHT31;51545;51.568;6.998;2023-02-11T06:28:42;5.86;96.57
64997;SHT31;51545;51.568;6.998;2023-02-11T06:31:07;5.85;96.57
64997;SHT31;51545;51.568;6.998;2023-02-11T06:33:33;5.85;96.61
64997;SHT31;51545;51.568;6.998;2023-02-11T06:35:59;5.85;96.69
64997;SHT31;51545;51.568;6.998;2023-02-11T06:38:25;5.85;96.67
64997;SHT31;51545;51.568;6.998;2023-02-11T06:40:51;5.90;96.64
64997;SHT31;51545;51.568;6.998;2023-02-11T06:43:16;5.92;96.71
64997;SHT31;51545;51.568;6.998;2023-02-11T06:45:42;5.90;96.72
64997;SHT31;51545;51.568;6.998;2023-02-11T06:48:07;5.92;96.68
64997;SHT31;51545;51.568;6.998;2023-02-11T06:50:33;5.92;96.66
64997;SHT31;51545;51.568;6.998;2023-02-11T06:52:59;5.95;96.63
64997;SHT31;51545;51.568;6.998;2023-02-11T06:55:24;5.98;96.61
64997;SHT31;51545;51.568;6.998;2023-02-11T06:57:50;5.96;96.66
64997;SHT31;51545;51.568;6.998;2023-02-11T07:00:16;5.98;96.61
64997;SHT31;51545;51.568;6.998;2023-02-11T07:02:42;6.00;96.57
64997;SHT31;51545;51.568;6.998;2023-02-11T07:05:08;5.96;96.63
64997;SHT31;51545;51.568;6.998;2023-02-11T07:07:34;6.00;96.68
64997;SHT31;51545;51.568;6.998;2023-02-11T07:10:00;6.00;96.60
64997;SHT31;51545;51.568;6.998;2023-02-11T07:12:28;6.00;96.62
64997;SHT31;51545;51.568;6.998;2023-02-11T07:14:54;6.02;96.59
64997;SHT31;51545;51.568;6.998;2023-02-11T07:17:20;6.02;96.63
64997;SHT31;51545;51.568;6.998;2023-02-11T07:19:45;6.03;96.58
64997;SHT31;51545;51.568;6.998;2023-02-11T07:22:11;6.06;96.60
64997;SHT31;51545;51.568;6.998;2023-02-11T07:24:36;6.05;96.52
64997;SHT31;51545;51.568;6.998;2023-02-11T07:27:02;6.03;96.55
64997;SHT31;51545;51.568;6.998;2023-02-11T07:29:27;6.07;96.56
64997;SHT31;51545;51.568;6.998;2023-02-11T07:31:53;6.07;96.55
64997;SHT31;51545;51.568;6.998;2023-02-11T07:34:18;6.09;96.53
64997;SHT31;51545;51.568;6.998;2023-02-11T07:36:43;6.10;96.44
64997;SHT31;51545;51.568;6.998;2023-02-11T07:39:09;6.07;96.45
64997;SHT31;51545;51.568;6.998;2023-02-11T07:41:35;6.13;96.47
64997;SHT31;51545;51.568;6.998;2023-02-11T07:44:01;6.09;96.45
64997;SHT31;51545;51.568;6.998;2023-02-11T07:46:27;6.14;96.34
64997;SHT31;51545;51.568;6.998;2023-02-11T07:48:53;6.16;96.24
64997;SHT31;51545;51.568;6.998;2023-02-11T07:51:23;6.11;96.24
64997;SHT31;51545;51.568;6.998;2023-02-11T07:53:50;6.14;96.30
64997;SHT31;51545;51.568;6.998;2023-02-11T07:56:17;6.18;96.16
64997;SHT31;51545;51.568;6.998;2023-02-11T07:58:43;6.17;96.11
64997;SHT31;51545;51.568;6.998;2023-02-11T08:01:10;6.20;96.14
64997;SHT31;51545;51.568;6.998;2023-02-11T08:03:38;6.18;96.03
64997;SHT31;51545;51.568;6.998;2023-02-11T08:06:07;6.23;96.12
64997;SHT31;51545;51.568;6.998;2023-02-11T08:08:34;6.20;96.09
64997;SHT31;51545;51.568;6.998;2023-02-11T08:11:04;6.24;96.19
64997;SHT31;51545;51.568;6.998;2023-02-11T08:13:31;6.24;96.06
64997;SHT31;51545;51.568;6.998;2023-02-11T08:15:57;6.30;96.06
64997;SHT31;51545;51.568;6.998;2023-02-11T08:18:23;6.30;95.97
64997;SHT31;51545;51.568;6.998;2023-02-11T08:20:48;6.30;95.96
64997;SHT31;51545;51.568;6.998;2023-02-11T08:23:14;6.30;95.88
64997;SHT31;51545;51.568;6.998;2023-02-11T08:25:39;6.35;95.88
64997;SHT31;51545;51.568;6.998;2023-02-11T08:28:05;6.34;95.81
64997;SHT31;51545;51.568;6.998;2023-02-11T08:30:30;6.37;95.74
64997;SHT31;51545;51.568;6.998;2023-02-11T08:32:56;6.34;95.85
64997;SHT31;51545;51.568;6.998;2023-02-11T08:35:21;6.34;95.87
64997;SHT31;51545;51.568;6.998;2023-02-11T08:37:46;6.38;95.83
64997;SHT31;51545;51.568;6.998;2023-02-11T08:40:12;6.38;95.67
64997;SHT31;51545;51.568;6.998;2023-02-11T08:42:37;6.41;95.80
64997;SHT31;51545;51.568;6.998;2023-02-11T08:45:03;6.44;95.68
64997;SHT31;51545;51.568;6.998;2023-02-11T08:47:29;6.48;95.66
64997;SHT31;51545;51.568;6.998;2023-02-11T08:49:55;6.49;95.47
64997;SHT31;51545;51.568;6.998;2023-02-11T08:52:21;6.51;95.41
64997;SHT31;51545;51.568;6.998;2023-02-11T08:54:46;6.52;95.43
64997;SHT31;51545;51.568;6.998;2023-02-11T08:57:12;6.58;95.37
64997;SHT31;51545;51.568;6.998;2023-02-11T08:59:37;6.62;95.34
64997;SHT31;51545;51.568;6.998;2023-02-11T09:02:04;6.62;95.13
64997;SHT31;51545;51.568;6.998;2023-02-11T09:04:31;6.64;95.13
64997;SHT31;51545;51.568;6.998;2023-02-11T09:06:57;6.67;95.05
64997;SHT31;51545;51.568;6.998;2023-02-11T09:09:22;6.72;94.97
64997;SHT31;51545;51.568;6.998;2023-02-11T09:11:48;6.71;94.89
64997;SHT31;51545;51.568;6.998;2023-02-11T09:14:15;6.73;95.02
64997;SHT31;51545;51.568;6.998;2023-02-11T09:16:46;6.75;94.96
64997;SHT31;51545;51.568;6.998;2023-02-11T09:19:12;6.83;94.89
64997;SHT31;51545;51.568;6.998;2023-02-11T09:21:37;6.82;94.83
64997;SHT31;51545;51.568;6.998;2023-02-11T09:24:03;6.85;94.67
64997;SHT31;51545;51.568;6.998;2023-02-11T09:26:31;6.90;94.74
64997;SHT31;51545;51.568;6.998;2023-02-11T09:28:58;6.97;94.41
64997;SHT31;51545;51.568;6.998;2023-02-11T09:31:24;6.88;94.38
64997;SHT31;51545;51.568;6.998;2023-02-11T09:33:52;6.95;94.71
64997;SHT31;51545;51.568;6.998;2023-02-11T09:36:20;6.96;94.59
64997;SHT31;51545;51.568;6.998;2023-02-11T09:38:48;6.99;94.51
64997;SHT31;51545;51.568;6.998;2023-02-11T09:44:18;7.06;94.35
64997;SHT31;51545;51.568;6.998;2023-02-11T09:46:47;7.04;94.10
64997;SHT31;51545;51.568;6.998;2023-02-11T09:49:20;7.13;94.13
64997;SHT31;51545;51.568;6.998;2023-02-11T09:51:52;7.07;94.31
64997;SHT31;51545;51.568;6.998;2023-02-11T09:54:37;7.09;94.22
64997;SHT31;51545;51.568;6.998;2023-02-11T09:57:13;7.54;94.02
64997;SHT31;51545;51.568;6.998;2023-02-11T09:59:38;7.46;93.51
64997;SHT31;51545;51.568;6.998;2023-02-11T10:04:55;7.26;93.73
64997;SHT31;51545;51.568;6.998;2023-02-11T10:07:45;7.28;93.91
64997;SHT31;51545;51.568;6.998;2023-02-11T10:12:57;7.35;93.90
64997;SHT31;51545;51.568;6.998;2023-02-11T10:15:43;7.37;93.74
64997;SHT31;51545;51.568;6.998;2023-02-11T10:23:35;7.39;93.95
64997;SHT31;51545;51.568;6.998;2023-02-11T10:26:09;7.46;93.82
64997;SHT31;51545;51.568;6.998;2023-02-11T10:28:38;7.54;93.51
64997;SHT31;51545;51.568;6.998;2023-02-11T10:31:10;7.51;93.40
64997;SHT31;51545;51.568;6.998;2023-02-11T10:36:12;7.59;93.26
64997;SHT31;51545;51.568;6.998;2023-02-11T10:38:39;7.63;93.26
64997;SHT31;51545;51.568;6.998;2023-02-11T10:41:05;7.63;93.41
64997;SHT31;51545;51.568;6.998;2023-02-11T10:43:31;7.61;93.43
64997;SHT31;51545;51.568;6.998;2023-02-11T10:45:58;7.58;93.33
64997;SHT31;51545;51.568;6.998;2023-02-11T10:48:42;7.61;93.56
64997;SHT31;51545;51.568;6.998;2023-02-11T10:54:10;7.62;93.61
64997;SHT31;51545;51.568;6.998;2023-02-11T10:56:47;7.63;93.75
64997;SHT31;51545;51.568;6.998;2023-02-11T10:59:28;7.67;93.84
64997;SHT31;51545;51.568;6.998;2023-02-11T11:02:00;7.67;93.68
64997;SHT31;51545;51.568;6.998;2023-02-11T11:06:58;7.70;93.54
64997;SHT31;51545;51.568;6.998;2023-02-11T11:09:43;7.72;93.58
64997;SHT31;51545;51.568;6.998;2023-02-11T11:12:57;7.65;93.66
64997;SHT31;51545;51.568;6.998;2023-02-11T11:17:35;7.63;94.00
64997;SHT31;51545;51.568;6.998;2023-02-11T11:20:21;7.66;94.02
64997;SHT31;51545;51.568;6.998;2023-02-11T11:22:52;7.69;93.95
64997;SHT31;51545;51.568;6.998;2023-02-11T11:25:33;7.69;94.00
64997;SHT31;51545;51.568;6.998;2023-02-11T11:28:02;7.66;93.92
64997;SHT31;51545;51.568;6.998;2023-02-11T11:30:38;7.67;93.91
64997;SHT31;51545;51.568;6.998;2023-02-11T11:33:28;7.70;94.10
64997;SHT31;51545;51.568;6.998;2023-02-11T11:35:55;7.66;93.92
64997;SHT31;51545;51.568;6.998;2023-02-11T11:38:30;7.65;94.12
64997;SHT31;51545;51.568;6.998;2023-02-11T11:44:03;7.67;94.31
64997;SHT31;51545;51.568;6.998;2023-02-11T11:46:43;7.70;94.16
64997;SHT31;51545;51.568;6.998;2023-02-11T11:51:38;7.73;94.02
64997;SHT31;51545;51.568;6.998;2023-02-11T11:54:12;7.76;94.15
64997;SHT31;51545;51.568;6.998;2023-02-11T11:56:46;7.83;94.07
64997;SHT31;51545;51.568;6.998;2023-02-11T11:59:17;7.87;93.93
64997;SHT31;51545;51.568;6.998;2023-02-11T12:04:34;7.78;94.18
64997;SHT31;51545;51.568;6.998;2023-02-11T12:07:37;7.83;94.19
64997;SHT31;51545;51.568;6.998;2023-02-11T12:13:10;7.85;94.07
64997;SHT31;51545;51.568;6.998;2023-02-11T12:27:00;8.01;93.86
64997;SHT31;51545;51.568;6.998;2023-02-11T12:32:50;8.11;93.43
64997;SHT31;51545;51.568;6.998;2023-02-11T12:40:25;8.18;92.99
64997;SHT31;51545;51.568;6.998;2023-02-11T12:43:19;8.17;93.21
64997;SHT31;51545;51.568;6.998;2023-02-11T13:05:26;8.27;93.13
64997;SHT31;51545;51.568;6.998;2023-02-11T13:10:49;8.25;93.18
64997;SHT31;51545;51.568;6.998;2023-02-11T13:13:32;8.25;92.99
64997;SHT31;51545;51.568;6.998;2023-02-11T13:16:04;8.22;93.22
64997;SHT31;51545;51.568;6.998;2023-02-11T13:37:56;8.35;92.99
64997;SHT31;51545;51.568;6.998;2023-02-11T13:40:24;8.34;92.87
64997;SHT31;51545;51.568;6.998;2023-02-11T13:42:52;8.31;92.97
64997;SHT31;51545;51.568;6.998;2023-02-11T13:45:30;8.38;93.04
64997;SHT31;51545;51.568;6.998;2023-02-11T13:47:59;8.34;92.90
64997;SHT31;51545;51.568;6.998;2023-02-11T13:50:28;8.44;92.61
64997;SHT31;51545;51.568;6.998;2023-02-11T13:53:01;8.48;92.65
64997;SHT31;51545;51.568;6.998;2023-02-11T13:55:28;8.53;92.32
64997;SHT31;51545;51.568;6.998;2023-02-11T14:14:18;11.50;81.00
64997;SHT31;51545;51.568;6.998;2023-02-11T14:19:41;11.46;80.80
64997;SHT31;51545;51.568;6.998;2023-02-11T14:35:20;9.67;86.92
64997;SHT31;51545;51.568;6.998;2023-02-11T14:43:50;9.79;86.81
64997;SHT31;51545;51.568;6.998;2023-02-11T14:46:21;9.84;86.83
64997;SHT31;51545;51.568;6.998;2023-02-11T14:48:51;9.83;86.41
64997;SHT31;51545;51.568;6.998;2023-02-11T14:53:51;9.84;87.08
64997;SHT31;51545;51.568;6.998;2023-02-11T14:56:23;9.70;86.64
64997;SHT31;51545;51.568;6.998;2023-02-11T14:58:52;9.70;86.95
64997;SHT31;51545;51.568;6.998;2023-02-11T15:01:33;9.57;87.15
64997;SHT31;51545;51.568;6.998;2023-02-11T15:04:05;9.52;87.16
64997;SHT31;51545;51.568;6.998;2023-02-11T15:06:47;9.55;87.54
64997;SHT31;51545;51.568;6.998;2023-02-11T15:09:23;9.55;87.39
64997;SHT31;51545;51.568;6.998;2023-02-11T15:12:04;9.53;87.52
64997;SHT31;51545;51.568;6.998;2023-02-11T15:14:37;9.49;87.45
64997;SHT31;51545;51.568;6.998;2023-02-11T15:17:11;9.62;87.40
64997;SHT31;51545;51.568;6.998;2023-02-11T15:19:44;9.56;87.44
64997;SHT31;51545;51.568;6.998;2023-02-11T15:22:15;9.48;87.68
64997;SHT31;51545;51.568;6.998;2023-02-11T15:25:31;9.43;87.93
64997;SHT31;51545;51.568;6.998;2023-02-11T15:27:40;9.46;88.14
64997;SHT31;51545;51.568;6.998;2023-02-11T15:32:51;9.28;88.59
64997;SHT31;51545;51.568;6.998;2023-02-11T15:35:23;9.27;88.82
64997;SHT31;51545;51.568;6.998;2023-02-11T15:37:55;9.20;89.08
64997;SHT31;51545;51.568;6.998;2023-02-11T15:40:33;9.18;89.23
64997;SHT31;51545;51.568;6.998;2023-02-11T15:43:02;9.18;89.24
64997;SHT31;51545;51.568;6.998;2023-02-11T15:45:34;9.18;89.31
64997;SHT31;51545;51.568;6.998;2023-02-11T15:48:08;9.21;89.39
64997;SHT31;51545;51.568;6.998;2023-02-11T15:50:57;9.20;89.38
64997;SHT31;51545;51.568;6.998;2023-02-11T15:53:35;9.14;89.44
64997;SHT31;51545;51.568;6.998;2023-02-11T15:58:35;9.10;89.69
64997;SHT31;51545;51.568;6.998;2023-02-11T16:01:02;9.11;89.87
64997;SHT31;51545;51.568;6.998;2023-02-11T16:03:30;9.05;89.92
64997;SHT31;51545;51.568;6.998;2023-02-11T16:08:55;9.08;90.07
64997;SHT31;51545;51.568;6.998;2023-02-11T16:11:31;9.08;90.06
64997;SHT31;51545;51.568;6.998;2023-02-11T16:14:00;9.07;90.06
64997;SHT31;51545;51.568;6.998;2023-02-11T16:16:28;9.07;90.13
64997;SHT31;51545;51.568;6.998;2023-02-11T16:18:59;9.07;90.24
64997;SHT31;51545;51.568;6.998;2023-02-11T16:21:30;9.03;90.24
64997;SHT31;51545;51.568;6.998;2023-02-11T16:24:04;9.07;90.23
64997;SHT31;51545;51.568;6.998;2023-02-11T16:26:37;9.07;90.13
64997;SHT31;51545;51.568;6.998;2023-02-11T16:29:12;9.05;90.22
64997;SHT31;51545;51.568;6.998;2023-02-11T16:31:41;9.05;90.31
64997;SHT31;51545;51.568;6.998;2023-02-11T16:34:13;9.04;90.53
64997;SHT31;51545;51.568;6.998;2023-02-11T16:36:43;8.99;90.69
64997;SHT31;51545;51.568;6.998;2023-02-11T16:39:09;8.96;91.03
64997;SHT31;51545;51.568;6.998;2023-02-11T16:41:35;8.93;91.09
64997;SHT31;51545;51.568;6.998;2023-02-11T16:44:01;8.87;91.36
64997;SHT31;51545;51.568;6.998;2023-02-11T16:46:26;8.87;91.48
64997;SHT31;51545;51.568;6.998;2023-02-11T16:48:53;8.86;91.53
64997;SHT31;51545;51.568;6.998;2023-02-11T16:51:19;8.79;91.70
64997;SHT31;51545;51.568;6.998;2023-02-11T16:53:44;8.72;91.98
64997;SHT31;51545;51.568;6.998;2023-02-11T16:56:12;8.74;91.95
64997;SHT31;51545;51.568;6.998;2023-02-11T16:58:40;8.74;92.08
64997;SHT31;51545;51.568;6.998;2023-02-11T17:01:05;8.72;92.10
64997;SHT31;51545;51.568;6.998;2023-02-11T17:03:31;8.76;92.08
64997;SHT31;51545;51.568;6.998;2023-02-11T17:06:01;8.76;92.11
64997;SHT31;51545;51.568;6.998;2023-02-11T17:08:29;8.70;92.17
64997;SHT31;51545;51.568;6.998;2023-02-11T17:10:55;8.72;92.32
64997;SHT31;51545;51.568;6.998;2023-02-11T17:13:21;8.72;92.33
64997;SHT31;51545;51.568;6.998;2023-02-11T17:15:46;8.70;92.35
64997;SHT31;51545;51.568;6.998;2023-02-11T17:18:12;8.70;92.43
64997;SHT31;51545;51.568;6.998;2023-02-11T17:20:40;8.66;92.45
64997;SHT31;51545;51.568;6.998;2023-02-11T17:23:06;8.66;92.49
64997;SHT31;51545;51.568;6.998;2023-02-11T17:25:31;8.65;92.55
64997;SHT31;51545;51.568;6.998;2023-02-11T17:27:57;8.63;92.66
64997;SHT31;51545;51.568;6.998;2023-02-11T17:30:22;8.66;92.75
64997;SHT31;51545;51.568;6.998;2023-02-11T17:32:48;8.63;92.75
64997;SHT31;51545;51.568;6.998;2023-02-11T17:35:14;8.62;92.83
64997;SHT31;51545;51.568;6.998;2023-02-11T17:37:40;8.66;92.75
64997;SHT31;51545;51.568;6.998;2023-02-11T17:40:06;8.65;92.79
64997;SHT31;51545;51.568;6.998;2023-02-11T17:42:32;8.60;92.84
64997;SHT31;51545;51.568;6.998;2023-02-11T17:44:58;8.62;92.89
64997;SHT31;51545;51.568;6.998;2023-02-11T17:47:23;8.63;92.86
64997;SHT31;51545;51.568;6.998;2023-02-11T17:49:49;8.57;93.03
64997;SHT31;51545;51.568;6.998;2023-02-11T17:52:14;8.53;93.09
64997;SHT31;51545;51.568;6.998;2023-02-11T17:54:41;8.50;93.16
64997;SHT31;51545;51.568;6.998;2023-02-11T17:57:07;8.52;93.23
64997;SHT31;51545;51.568;6.998;2023-02-11T17:59:32;8.50;93.20
64997;SHT31;51545;51.568;6.998;2023-02-11T18:02:00;8.52;93.26
64997;SHT31;51545;51.568;6.998;2023-02-11T18:04:26;8.49;93.26
64997;SHT31;51545;51.568;6.998;2023-02-11T18:06:52;8.52;93.28
64997;SHT31;51545;51.568;6.998;2023-02-11T18:09:18;8.52;93.30
64997;SHT31;51545;51.568;6.998;2023-02-11T18:11:44;8.52;93.26
64997;SHT31;51545;51.568;6.998;2023-02-11T18:14:10;8.52;93.28
64997;SHT31;51545;51.568;6.998;2023-02-11T18:16:36;8.52;93.34
64997;SHT31;51545;51.568;6.998;2023-02-11T18:19:03;8.48;93.39
64997;SHT31;51545;51.568;6.998;2023-02-11T18:21:31;8.50;93.43
64997;SHT31;51545;51.568;6.998;2023-02-11T18:23:57;8.49;93.18
64997;SHT31;51545;51.568;6.998;2023-02-11T18:26:22;8.50;93.22
64997;SHT31;51545;51.568;6.998;2023-02-11T18:28:50;8.48;93.30
64997;SHT31;51545;51.568;6.998;2023-02-11T18:31:16;8.48;93.28
64997;SHT31;51545;51.568;6.998;2023-02-11T18:33:42;8.48;93.36
64997;SHT31;51545;51.568;6.998;2023-02-11T18:36:10;8.49;93.22
64997;SHT31;51545;51.568;6.998;2023-02-11T18:38:37;8.46;93.26
64997;SHT31;51545;51.568;6.998;2023-02-11T18:41:03;8.50;93.18
64997;SHT31;51545;51.568;6.998;2023-02-11T18:43:29;8.53;93.17
64997;SHT31;51545;51.568;6.998;2023-02-11T18:45:56;8.50;93.04
64997;SHT31;51545;51.568;6.998;2023-02-11T18:48:21;8.53;93.02
64997;SHT31;51545;51.568;6.998;2023-02-11T18:50:50;8.53;92.97
64997;SHT31;51545;51.568;6.998;2023-02-11T18:53:16;8.56;92.91